createdAt,value
2018-03-18T00:04:39.043Z,28.61
2018-03-18T00:07:04.879Z,28.36
2018-03-18T00:09:30.690Z,28.20
2018-03-18T00:11:56.534Z,28.28
2018-03-18T00:14:22.355Z,28.65
2018-03-18T00:16:48.175Z,28.40
2018-03-18T00:19:13.992Z,28.46
2018-03-18T00:21:39.809Z,28.10
2018-03-18T00:24:05.663Z,28.43
2018-03-18T00:26:31.478Z,28.35
2018-03-18T00:28:57.352Z,28.27
2018-03-18T00:31:23.171Z,28.20
2018-03-18T00:33:49.001Z,28.46
2018-03-18T00:36:14.823Z,28.12
2018-03-18T00:38:40.643Z,28.13
2018-03-18T00:41:06.498Z,28.31
2018-03-18T00:43:32.318Z,28.33
2018-03-18T00:45:58.234Z,28.30
2018-03-18T00:48:24.040Z,28.31
2018-03-18T00:50:49.850Z,28.33
2018-03-18T00:53:16.550Z,27.78
2018-03-18T00:55:42.363Z,27.69
2018-03-18T00:58:08.179Z,27.65
2018-03-18T01:00:33.998Z,28.51
2018-03-18T01:02:59.841Z,27.84
2018-03-18T01:05:25.654Z,27.68
2018-03-18T01:07:51.467Z,27.50
2018-03-18T01:10:17.283Z,28.08
2018-03-18T01:12:44.074Z,28.05
2018-03-18T01:15:09.935Z,27.70
2018-03-18T01:17:35.757Z,27.89
2018-03-18T01:20:01.580Z,28.23
2018-03-18T01:22:27.401Z,28.19
2018-03-18T01:24:53.207Z,27.58
2018-03-18T01:27:19.023Z,27.64
2018-03-18T01:29:44.847Z,27.83
2018-03-18T01:32:10.654Z,27.55
2018-03-18T01:34:36.470Z,27.56
2018-03-18T01:37:02.283Z,28.17
2018-03-18T01:39:28.095Z,27.41
2018-03-18T01:41:53.946Z,27.50
2018-03-18T01:44:19.758Z,27.48
2018-03-18T01:46:45.608Z,27.88
2018-03-18T01:49:11.418Z,27.72
2018-03-18T01:51:37.233Z,27.92
2018-03-18T01:54:03.046Z,27.88
2018-03-18T01:56:29.760Z,27.96
2018-03-18T01:58:55.570Z,28.20
2018-03-18T02:01:21.386Z,27.95
2018-03-18T02:03:47.234Z,27.50
2018-03-18T02:06:13.052Z,28.02
2018-03-18T02:08:39.702Z,27.93
2018-03-18T02:11:05.550Z,27.76
2018-03-18T02:13:32.208Z,27.61
2018-03-18T02:15:58.050Z,27.81
2018-03-18T02:18:23.895Z,27.90
2018-03-18T02:20:49.700Z,27.75
2018-03-18T02:23:15.545Z,27.71
2018-03-18T02:25:41.350Z,27.90
2018-03-18T02:28:07.939Z,27.64
2018-03-18T02:30:33.758Z,27.86
2018-03-18T02:32:59.561Z,27.60
2018-03-18T02:35:25.368Z,27.96
2018-03-18T02:37:51.182Z,27.94
2018-03-18T02:40:16.995Z,27.25
2018-03-18T02:42:42.804Z,27.11
2018-03-18T02:45:15.708Z,27.30
2018-03-18T02:47:41.518Z,27.53
2018-03-18T02:50:07.332Z,27.58
2018-03-18T02:52:33.143Z,27.30
2018-03-18T02:54:58.954Z,27.12
2018-03-18T02:57:24.789Z,27.37
2018-03-18T02:59:50.603Z,27.33
2018-03-18T03:02:16.410Z,27.12
2018-03-18T03:04:42.232Z,27.12
2018-03-18T03:07:08.059Z,27.35
2018-03-18T03:09:33.884Z,26.91
2018-03-18T03:11:59.711Z,27.19
2018-03-18T03:14:25.602Z,27.25
2018-03-18T03:16:52.354Z,27.15
2018-03-18T03:19:19.250Z,27.42
2018-03-18T03:21:45.942Z,27.30
2018-03-18T03:24:11.752Z,27.15
2018-03-18T03:26:37.574Z,27.29
2018-03-18T03:29:04.280Z,26.90
2018-03-18T03:31:31.119Z,27.03
2018-03-18T03:33:56.929Z,27.27
2018-03-18T03:36:22.779Z,27.19
2018-03-18T03:38:48.590Z,26.93
2018-03-18T03:41:14.433Z,27.33
2018-03-18T03:43:40.254Z,27.27
2018-03-18T03:46:06.130Z,27.00
2018-03-18T03:48:31.947Z,27.21
2018-03-18T03:50:57.768Z,27.08
2018-03-18T03:53:23.584Z,27.08
2018-03-18T03:55:49.401Z,26.87
2018-03-18T03:58:15.254Z,26.98
2018-03-18T04:00:41.071Z,27.00
2018-03-18T04:03:06.938Z,27.15
2018-03-18T04:05:32.756Z,26.88
2018-03-18T04:07:58.610Z,27.14
2018-03-18T04:10:24.430Z,27.51
2018-03-18T04:12:50.253Z,27.32
2018-03-18T04:15:16.124Z,27.35
2018-03-18T04:17:41.938Z,27.24
2018-03-18T04:20:07.754Z,27.23
2018-03-18T04:22:34.563Z,27.18
2018-03-18T04:25:00.386Z,27.09
2018-03-18T04:27:26.203Z,26.94
2018-03-18T04:29:52.023Z,27.14
2018-03-18T04:32:17.842Z,27.13
2018-03-18T04:34:43.659Z,27.21
2018-03-18T04:37:09.475Z,27.26
2018-03-18T04:39:36.196Z,27.41
2018-03-18T04:42:02.981Z,27.30
2018-03-18T04:44:29.757Z,27.10
2018-03-18T04:46:56.494Z,27.09
2018-03-18T04:49:22.312Z,27.28
2018-03-18T04:51:48.128Z,27.24
2018-03-18T04:54:15.003Z,27.07
2018-03-18T04:56:40.859Z,26.90
2018-03-18T04:59:06.671Z,27.22
2018-03-18T05:01:32.522Z,27.30
2018-03-18T05:03:59.175Z,27.28
2018-03-18T05:06:24.990Z,27.27
2018-03-18T05:08:50.820Z,27.38
2018-03-18T05:11:16.655Z,27.27
2018-03-18T05:13:42.497Z,27.43
2018-03-18T05:16:08.362Z,26.91
2018-03-18T05:18:34.187Z,27.41
2018-03-18T05:21:01.018Z,27.33
2018-03-18T05:23:26.834Z,27.28
2018-03-18T05:25:52.690Z,27.34
2018-03-18T05:28:18.504Z,27.35
2018-03-18T05:30:44.361Z,27.34
2018-03-18T05:33:10.190Z,27.29
2018-03-18T05:35:36.961Z,27.10
2018-03-18T05:38:02.801Z,27.36
2018-03-18T05:40:29.507Z,27.50
2018-03-18T05:42:55.332Z,27.54
2018-03-18T05:45:21.162Z,27.39
2018-03-18T05:47:46.987Z,26.99
2018-03-18T05:50:13.640Z,27.13
2018-03-18T05:52:40.340Z,27.37
2018-03-18T05:55:06.161Z,27.04
2018-03-18T05:57:32.015Z,27.41
2018-03-18T05:59:57.881Z,27.07
2018-03-18T06:02:24.534Z,27.14
2018-03-18T06:04:50.348Z,27.19
2018-03-18T06:07:17.154Z,27.12
2018-03-18T06:09:43.962Z,27.24
2018-03-18T06:12:10.785Z,27.16
2018-03-18T06:14:36.611Z,27.13
2018-03-18T06:17:03.346Z,26.98
2018-03-18T06:19:30.107Z,26.93
2018-03-18T06:21:56.910Z,26.90
2018-03-18T06:24:22.723Z,26.67
2018-03-18T06:26:48.576Z,26.80
2018-03-18T06:29:15.211Z,26.92
2018-03-18T06:31:41.054Z,26.85
2018-03-18T06:34:07.915Z,27.02
2018-03-18T06:36:33.731Z,26.62
2018-03-18T06:38:59.547Z,26.79
2018-03-18T06:41:25.383Z,26.64
2018-03-18T06:43:51.197Z,26.54
2018-03-18T06:46:17.060Z,26.84
2018-03-18T06:48:42.890Z,26.45
2018-03-18T06:51:08.716Z,26.45
2018-03-18T06:53:35.479Z,26.60
2018-03-18T06:56:02.291Z,26.65
2018-03-18T06:58:28.131Z,26.83
2018-03-18T07:00:53.944Z,26.61
2018-03-18T07:03:20.623Z,26.72
2018-03-18T07:05:46.457Z,26.50
2018-03-18T07:08:12.273Z,26.29
2018-03-18T07:10:38.107Z,26.49
2018-03-18T07:13:04.006Z,26.60
2018-03-18T07:15:29.872Z,26.35
2018-03-18T07:17:55.695Z,26.28
2018-03-18T07:20:21.512Z,26.32
2018-03-18T07:22:47.325Z,26.42
2018-03-18T07:25:13.162Z,26.42
2018-03-18T07:27:38.968Z,26.60
2018-03-18T07:30:04.787Z,26.42
2018-03-18T07:32:31.443Z,26.17
2018-03-18T07:34:57.265Z,26.28
2018-03-18T07:37:23.110Z,26.15
2018-03-18T07:39:48.942Z,26.44
2018-03-18T07:42:14.762Z,26.18
2018-03-18T07:44:40.584Z,26.30
2018-03-18T07:47:06.449Z,26.27
2018-03-18T07:49:32.307Z,26.28
2018-03-18T07:51:58.171Z,26.01
2018-03-18T07:54:24.903Z,25.99
2018-03-18T07:56:50.707Z,26.06
2018-03-18T07:59:16.524Z,26.24
2018-03-18T08:01:42.388Z,25.88
2018-03-18T08:04:09.075Z,26.06
2018-03-18T08:06:34.899Z,25.81
2018-03-18T08:09:01.718Z,25.74
2018-03-18T08:11:28.391Z,25.93
2018-03-18T08:13:54.202Z,26.06
2018-03-18T08:16:21.010Z,25.89
2018-03-18T08:18:47.650Z,25.84
2018-03-18T08:21:13.516Z,25.87
2018-03-18T08:23:39.333Z,25.90
2018-03-18T08:26:05.199Z,25.98
2018-03-18T08:28:31.067Z,25.54
2018-03-18T08:30:57.803Z,25.44
2018-03-18T08:33:24.518Z,25.65
2018-03-18T08:35:50.366Z,25.64
2018-03-18T08:38:16.190Z,25.57
2018-03-18T08:40:42.123Z,25.51
2018-03-18T08:43:07.948Z,25.76
2018-03-18T08:45:34.558Z,25.59
2018-03-18T08:48:00.374Z,25.67
2018-03-18T08:50:26.279Z,25.67
2018-03-18T08:52:52.106Z,25.76
2018-03-18T08:55:18.825Z,25.71
2018-03-18T08:57:44.644Z,25.22
2018-03-18T09:00:10.512Z,24.71
2018-03-18T09:02:36.357Z,24.78
2018-03-18T09:05:02.167Z,25.31
2018-03-18T09:07:28.060Z,24.71
2018-03-18T09:09:54.899Z,25.11
2018-03-18T09:12:20.946Z,25.14
2018-03-18T09:14:46.767Z,24.95
2018-03-18T09:17:12.582Z,24.70
2018-03-18T09:19:38.404Z,24.90
2018-03-18T09:22:05.177Z,25.04
2018-03-18T09:24:31.965Z,24.97
2018-03-18T09:26:57.782Z,25.57
2018-03-18T09:29:23.604Z,25.29
2018-03-18T09:31:49.468Z,25.17
2018-03-18T09:34:15.295Z,25.35
2018-03-18T09:36:42.015Z,25.03
2018-03-18T09:39:07.866Z,24.82
2018-03-18T09:41:33.689Z,25.21
2018-03-18T09:43:59.506Z,25.46
2018-03-18T09:46:25.389Z,25.20
2018-03-18T09:48:51.255Z,25.51
2018-03-18T09:51:17.110Z,24.97
2018-03-18T09:53:42.922Z,25.80
2018-03-18T09:56:08.779Z,26.01
2018-03-18T09:58:34.605Z,25.43
2018-03-18T10:01:00.433Z,25.35
2018-03-18T10:03:26.284Z,24.58
2018-03-18T10:05:52.105Z,25.06
2018-03-18T10:08:18.820Z,25.29
2018-03-18T10:10:44.638Z,25.17
2018-03-18T10:13:10.454Z,25.17
2018-03-18T10:15:36.271Z,24.72
2018-03-18T10:18:02.091Z,25.01
2018-03-18T10:20:27.986Z,24.46
2018-03-18T10:22:54.009Z,25.00
2018-03-18T10:25:20.740Z,25.41
2018-03-18T10:27:46.563Z,25.29
2018-03-18T10:30:12.388Z,24.95
2018-03-18T10:32:38.248Z,24.67
2018-03-18T10:35:04.075Z,23.48
2018-03-18T10:37:29.894Z,24.25
2018-03-18T10:39:55.790Z,24.04
2018-03-18T10:42:21.609Z,24.08
2018-03-18T10:44:47.454Z,24.11
2018-03-18T10:47:13.363Z,24.54
2018-03-18T10:49:39.158Z,24.13
2018-03-18T10:52:05.033Z,24.24
2018-03-18T10:54:31.778Z,24.23
2018-03-18T10:56:58.410Z,24.28
2018-03-18T10:59:25.165Z,24.56
2018-03-18T11:01:55.763Z,24.08
2018-03-18T11:04:21.614Z,24.99
2018-03-18T11:06:47.461Z,24.35
2018-03-18T11:09:20.278Z,24.24
2018-03-18T11:11:46.092Z,24.54
2018-03-18T11:14:13.054Z,24.43
2018-03-18T11:16:38.895Z,24.08
2018-03-18T11:19:04.745Z,23.87
2018-03-18T11:21:30.616Z,24.03
2018-03-18T11:23:56.490Z,23.96
2018-03-18T11:26:22.344Z,23.90
2018-03-18T11:28:48.165Z,24.21
2018-03-18T11:31:28.882Z,24.20
2018-03-18T11:33:54.821Z,24.04
2018-03-18T11:36:20.683Z,23.00
2018-03-18T11:38:46.534Z,23.44
2018-03-18T11:41:12.363Z,23.00
2018-03-18T11:43:38.292Z,23.05
2018-03-18T11:46:04.143Z,23.00
2018-03-18T11:48:30.138Z,23.22
2018-03-18T11:50:55.963Z,23.29
2018-03-18T11:53:22.562Z,23.68
2018-03-18T11:55:49.329Z,23.30
2018-03-18T11:58:15.172Z,23.65
2018-03-18T12:00:41.039Z,23.26
2018-03-18T12:03:06.883Z,23.50
2018-03-18T12:05:32.738Z,23.41
2018-03-18T12:07:58.555Z,23.66
2018-03-18T12:10:24.403Z,23.72
2018-03-18T12:12:50.206Z,23.43
2018-03-18T12:15:16.023Z,23.11
2018-03-18T12:17:41.839Z,23.30
2018-03-18T12:20:08.646Z,23.39
2018-03-18T12:22:34.467Z,23.56
2018-03-18T12:25:00.323Z,23.71
2018-03-18T12:27:26.137Z,23.63
2018-03-18T12:29:51.955Z,23.76
2018-03-18T12:32:17.763Z,23.96
2018-03-18T12:34:43.636Z,23.54
2018-03-18T12:37:09.464Z,23.74
2018-03-18T12:39:41.424Z,23.79
2018-03-18T12:42:07.246Z,23.58
2018-03-18T12:44:33.204Z,23.67
2018-03-18T12:46:59.016Z,23.88
2018-03-18T12:49:24.867Z,23.80
2018-03-18T12:51:50.683Z,23.89
2018-03-18T12:54:17.341Z,24.08
2018-03-18T12:56:43.983Z,23.81
2018-03-18T12:59:09.803Z,23.93
2018-03-18T13:01:35.614Z,23.89
2018-03-18T13:04:01.425Z,24.06
2018-03-18T13:06:27.238Z,23.55
2018-03-18T13:08:53.046Z,23.81
2018-03-18T13:11:19.715Z,23.87
2018-03-18T13:13:46.358Z,23.85
2018-03-18T13:16:12.351Z,24.11
2018-03-18T13:18:38.165Z,24.25
2018-03-18T13:21:04.063Z,23.99
2018-03-18T13:23:29.850Z,23.89
2018-03-18T13:25:55.664Z,23.53
2018-03-18T13:28:21.487Z,23.56
2018-03-18T13:30:47.330Z,24.10
2018-03-18T13:33:13.146Z,23.32
2018-03-18T13:35:38.950Z,23.27
2018-03-18T13:38:05.556Z,23.58
2018-03-18T13:40:31.411Z,23.65
2018-03-18T13:42:57.406Z,23.23
2018-03-18T13:45:23.217Z,23.91
2018-03-18T13:47:49.050Z,24.88
2018-03-18T13:50:14.862Z,24.35
2018-03-18T13:52:40.674Z,24.35
2018-03-18T13:55:06.511Z,24.00
2018-03-18T13:57:33.207Z,24.30
2018-03-18T13:59:59.011Z,23.73
2018-03-18T14:02:25.674Z,23.81
2018-03-18T14:04:51.522Z,24.48
2018-03-18T14:07:25.198Z,23.79
2018-03-18T14:09:51.046Z,23.67
2018-03-18T14:12:16.867Z,24.33
2018-03-18T14:14:42.672Z,23.76
2018-03-18T14:17:08.482Z,24.20
2018-03-18T14:19:34.540Z,24.59
2018-03-18T14:22:00.362Z,25.28
2018-03-18T14:24:26.175Z,24.35
2018-03-18T14:26:51.983Z,24.37
2018-03-18T14:29:17.910Z,24.45
2018-03-18T14:31:43.737Z,24.33
2018-03-18T14:34:09.563Z,23.93
2018-03-18T14:36:35.403Z,24.33
2018-03-18T14:39:01.234Z,24.41
2018-03-18T14:41:27.059Z,24.41
2018-03-18T14:43:52.927Z,24.65
2018-03-18T14:46:18.773Z,24.29
2018-03-18T14:48:45.611Z,24.77
2018-03-18T14:51:11.422Z,24.48
2018-03-18T14:53:37.275Z,24.68
2018-03-18T14:56:03.183Z,24.52
2018-03-18T14:58:31.125Z,24.33
2018-03-18T15:00:59.812Z,24.19
2018-03-18T15:03:25.827Z,24.47
2018-03-18T15:05:52.178Z,24.17
2018-03-18T15:08:18.210Z,24.21
2018-03-18T15:10:44.068Z,24.43
2018-03-18T15:13:09.883Z,24.38
2018-03-18T15:15:36.650Z,24.70
2018-03-18T15:18:02.958Z,24.38
2018-03-18T15:20:28.774Z,24.28
2018-03-18T15:22:54.579Z,24.35
2018-03-18T15:25:21.307Z,24.28
2018-03-18T15:27:47.989Z,24.75
2018-03-18T15:30:14.770Z,24.71
2018-03-18T15:32:40.625Z,24.71
2018-03-18T15:35:06.444Z,24.64
2018-03-18T15:37:32.289Z,24.33
2018-03-18T15:39:58.103Z,24.52
2018-03-18T15:42:23.944Z,24.67
2018-03-18T15:44:49.751Z,24.52
2018-03-18T15:47:15.594Z,24.60
2018-03-18T15:49:41.522Z,24.83
2018-03-18T15:52:07.377Z,24.97
2018-03-18T15:54:33.187Z,25.25
2018-03-18T15:56:59.851Z,24.98
2018-03-18T15:59:25.699Z,25.08
2018-03-18T16:01:51.506Z,25.12
2018-03-18T16:04:17.312Z,25.29
2018-03-18T16:06:43.919Z,25.59
2018-03-18T16:09:09.767Z,25.76
2018-03-18T16:11:35.609Z,24.96
2018-03-18T16:14:01.415Z,26.18
2018-03-18T16:16:27.254Z,25.29
2018-03-18T16:18:53.067Z,24.79
2018-03-18T16:21:18.926Z,26.21
2018-03-18T16:23:45.671Z,25.17
2018-03-18T16:26:11.479Z,24.95
2018-03-18T16:28:38.071Z,24.80
2018-03-18T16:31:11.896Z,25.36
2018-03-18T16:33:37.858Z,25.31
2018-03-18T16:36:03.768Z,25.14
2018-03-18T16:38:29.679Z,24.89
2018-03-18T16:40:56.440Z,25.63
2018-03-18T16:43:23.067Z,25.26
2018-03-18T16:45:48.886Z,25.38
2018-03-18T16:48:14.698Z,25.13
2018-03-18T16:50:40.505Z,24.75
2018-03-18T16:53:06.314Z,25.11
2018-03-18T16:55:32.998Z,25.09
2018-03-18T16:57:59.686Z,25.21
2018-03-18T17:00:26.330Z,24.93
2018-03-18T17:02:52.295Z,25.13
2018-03-18T17:05:18.133Z,25.16
2018-03-18T17:07:44.002Z,25.51
2018-03-18T17:10:09.866Z,25.17
2018-03-18T17:12:35.691Z,25.36
2018-03-18T17:15:01.553Z,25.20
2018-03-18T17:17:27.641Z,25.28
2018-03-18T17:19:53.480Z,25.08
2018-03-18T17:22:19.310Z,25.23
2018-03-18T17:24:45.139Z,25.93
2018-03-18T17:27:11.859Z,25.99
2018-03-18T17:29:37.704Z,25.72
2018-03-18T17:32:03.532Z,25.60
2018-03-18T17:34:29.360Z,25.43
2018-03-18T17:36:55.197Z,25.51
2018-03-18T17:39:21.039Z,25.68
2018-03-18T17:41:46.866Z,25.77
2018-03-18T17:44:18.852Z,25.55
2018-03-18T17:46:50.972Z,25.59
2018-03-18T17:49:23.015Z,26.90
2018-03-18T17:51:55.064Z,26.21
2018-03-18T17:54:27.146Z,25.46
2018-03-18T17:56:53.002Z,25.86
2018-03-18T17:59:18.840Z,25.85
2018-03-18T18:01:44.672Z,26.44
2018-03-18T18:04:10.486Z,25.48
2018-03-18T18:06:36.291Z,25.88
2018-03-18T18:09:02.126Z,26.07
2018-03-18T18:11:27.945Z,25.91
2018-03-18T18:13:55.606Z,26.74
2018-03-18T18:16:21.432Z,25.93
2018-03-18T18:18:47.259Z,25.88
2018-03-18T18:21:13.231Z,26.42
2018-03-18T18:23:39.063Z,26.26
2018-03-18T18:26:04.877Z,26.52
2018-03-18T18:28:30.743Z,26.14
2018-03-18T18:30:56.568Z,26.41
2018-03-18T18:33:22.395Z,26.04
2018-03-18T18:35:48.233Z,26.09
2018-03-18T18:38:14.059Z,26.35
2018-03-18T18:40:39.945Z,26.47
2018-03-18T18:43:05.946Z,26.53
2018-03-18T18:45:31.804Z,26.17
2018-03-18T18:47:57.735Z,26.44
2018-03-18T18:50:23.748Z,26.13
2018-03-18T18:52:49.695Z,25.98
2018-03-18T18:55:15.620Z,25.96
2018-03-18T18:57:41.567Z,26.41
2018-03-18T19:00:07.634Z,26.44
2018-03-18T19:02:33.806Z,26.90
2018-03-18T19:05:00.411Z,26.00
2018-03-18T19:07:26.687Z,26.18
2018-03-18T19:09:52.886Z,26.38
2018-03-18T19:12:18.853Z,26.51
2018-03-18T19:14:44.763Z,26.45
2018-03-18T19:17:10.697Z,26.73
2018-03-18T19:19:36.605Z,26.51
2018-03-18T19:22:02.450Z,26.69
2018-03-18T19:24:28.382Z,26.52
2018-03-18T19:26:54.243Z,26.66
2018-03-18T19:29:21.142Z,26.64
2018-03-18T19:31:47.927Z,28.21
2018-03-18T19:34:13.859Z,26.69
2018-03-18T19:36:39.788Z,26.51
2018-03-18T19:39:05.875Z,26.55
2018-03-18T19:41:31.768Z,27.36
2018-03-18T19:43:57.650Z,28.54
2018-03-18T19:46:25.339Z,26.86
2018-03-18T19:48:52.070Z,27.25
2018-03-18T19:51:17.936Z,26.83
2018-03-18T19:53:43.816Z,27.02
2018-03-18T19:56:09.690Z,27.74
2018-03-18T19:58:35.580Z,27.78
2018-03-18T20:01:01.406Z,27.14
2018-03-18T20:03:27.233Z,26.91
2018-03-18T20:05:53.106Z,28.54
2018-03-18T20:08:18.983Z,27.28
2018-03-18T20:10:44.855Z,27.49
2018-03-18T20:13:10.854Z,27.11
2018-03-18T20:15:36.867Z,26.87
2018-03-18T20:18:02.702Z,27.22
2018-03-18T20:20:28.539Z,26.92
2018-03-18T20:25:45.752Z,26.96
2018-03-18T20:28:11.585Z,27.67
2018-03-18T20:30:37.418Z,27.16
2018-03-18T20:33:04.075Z,27.71
2018-03-18T20:35:30.903Z,27.59
2018-03-18T20:37:56.864Z,28.82
2018-03-18T20:40:22.678Z,28.29
2018-03-18T20:42:48.634Z,28.66
2018-03-18T20:45:14.460Z,28.27
2018-03-18T20:47:40.459Z,27.51
2018-03-18T20:50:06.309Z,27.53
2018-03-18T20:52:32.232Z,27.72
2018-03-18T20:54:58.074Z,27.64
2018-03-18T20:57:23.883Z,27.74
2018-03-18T20:59:50.060Z,27.32
2018-03-18T21:02:15.874Z,27.59
2018-03-18T21:04:41.766Z,28.81
2018-03-18T21:07:07.943Z,28.09
2018-03-18T21:09:35.403Z,27.93
2018-03-18T21:12:01.376Z,28.05
2018-03-18T21:14:27.312Z,28.59
2018-03-18T21:16:53.154Z,28.47
2018-03-18T21:19:19.258Z,27.91
2018-03-18T21:21:45.122Z,27.57
2018-03-18T21:24:10.980Z,27.95
2018-03-18T21:26:36.789Z,28.99
2018-03-18T21:29:02.684Z,28.03
2018-03-18T21:31:28.499Z,28.25
2018-03-18T21:33:54.315Z,27.50
2018-03-18T21:36:20.363Z,27.61
2018-03-18T21:38:46.181Z,28.58
2018-03-18T21:41:11.991Z,27.38
2018-03-18T21:43:39.214Z,27.76
2018-03-18T21:46:05.022Z,27.57
2018-03-18T21:48:30.830Z,27.15
2018-03-18T21:50:56.655Z,27.59
2018-03-18T21:53:22.666Z,27.48
2018-03-18T21:55:48.519Z,27.26
2018-03-18T21:58:14.362Z,27.21
2018-03-18T22:00:41.190Z,27.20
2018-03-18T22:03:07.056Z,27.72
2018-03-18T22:05:32.891Z,27.73
2018-03-18T22:07:59.660Z,27.23
2018-03-18T22:10:25.470Z,27.71
2018-03-18T22:12:51.283Z,27.55
2018-03-18T22:15:17.086Z,27.92
2018-03-18T22:17:42.890Z,28.35
2018-03-18T22:20:08.694Z,27.78
2018-03-18T22:22:34.501Z,28.57
2018-03-18T22:25:00.347Z,29.15
2018-03-18T22:27:26.227Z,29.13
2018-03-18T22:29:52.063Z,29.01
2018-03-18T22:32:17.865Z,28.57
2018-03-18T22:34:43.661Z,27.89
2018-03-18T22:37:09.474Z,29.01
2018-03-18T22:39:35.278Z,28.82
2018-03-18T22:42:01.120Z,27.83
2018-03-18T22:44:26.930Z,28.75
2018-03-18T22:46:52.739Z,28.69
2018-03-18T22:49:18.546Z,28.65
2018-03-18T22:51:44.469Z,29.10
2018-03-18T22:54:10.274Z,28.44
2018-03-18T22:56:36.079Z,29.96
2018-03-18T22:59:01.883Z,29.77
2018-03-18T23:01:27.691Z,28.61
2018-03-18T23:03:53.496Z,28.32
2018-03-18T23:06:19.301Z,28.37
2018-03-18T23:08:45.123Z,28.32
2018-03-18T23:11:10.966Z,29.59
2018-03-18T23:13:36.783Z,28.58
2018-03-18T23:16:02.611Z,29.12
2018-03-18T23:18:28.427Z,29.51
2018-03-18T23:20:54.234Z,30.67
2018-03-18T23:23:20.078Z,29.75
2018-03-18T23:25:46.882Z,28.98
2018-03-18T23:28:12.855Z,28.84
2018-03-18T23:30:39.488Z,28.59
2018-03-18T23:33:05.387Z,29.06
2018-03-18T23:35:31.243Z,28.57
2018-03-18T23:37:57.070Z,29.00
2018-03-18T23:40:22.892Z,28.83
2018-03-18T23:42:48.742Z,28.73
2018-03-18T23:45:14.580Z,28.42
2018-03-18T23:47:40.396Z,28.74
2018-03-18T23:50:06.206Z,29.15
2018-03-18T23:52:32.007Z,28.18
2018-03-18T23:54:58.670Z,28.46
2018-03-18T23:57:24.690Z,29.03
2018-03-18T23:59:50.499Z,29.18
